Flight Track Log - Related Links

Times and Time Zones

All times are in EDT time to prevent confusion due to time zone crossing. See the AWE1262 flight status page for this flight to view local times or setup timezone preferences in your user account.


Time Position Orientation Groundspeed Altitude Reporting Facility
EDT Latitude Longitude Course Direction KTS MPH feet Rate Location/Type
Sat 02:42:11 PM 33.6641 -117.8763 208° Southwest 149 171 800  Level FlightAware ADS-B
Sat 02:42:26 PM 33.6558 -117.8815 208° Southwest 156 180 1,400 1,800 Climbing FlightAware ADS-B
Sat 02:42:41 PM 33.6437 -117.8881 200° South 179 206 1,700 1,200 Climbing FlightAware ADS-B
Sat 02:42:46 PM 33.6397 -117.8893 194° South 188 216 1,800 1,200 Climbing FlightAware ADS-B
Sat 02:43:01 PM 33.6250 -117.8916 187° South 219 252 2,100 1,935 Climbing FlightAware ADS-B
Sat 02:43:17 PM 33.6091 -117.8937 187° South 237 273 2,800 2,348 Climbing FlightAware ADS-B
Sat 02:43:24 PM 33.6012 -117.8948 187° South 255 293 3,000 2,143 Climbing FlightAware ADS-B
Sat 02:43:31 PM 33.5940 -117.8958 187° South 255 293 3,300 3,000 Climbing FlightAware ADS-B
Sat 02:43:46 PM 33.5735 -117.8962 174° South 264 304 4,100 3,375 Climbing FlightAware ADS-B
Sat 02:43:47 PM 33.5801 -117.8970 170° South 266 306 4,200 2,400 Climbing FlightAware ADS-B
Sat 02:43:51 PM 33.5673 -117.8946 168° South 266 306 4,300 2,400 Climbing FlightAware ADS-B
Sat 02:43:57 PM 33.5607 -117.8920 160° South 272 313 4,600 3,000 Climbing FlightAware ADS-B
Sat 02:44:01 PM 33.5553 -117.8890 154° Southeast 276 318 4,800 2,667 Climbing FlightAware ADS-B
Sat 02:44:06 PM 33.5501 -117.8851 147° Southeast 278 320 5,000 3,000 Climbing FlightAware ADS-B
Sat 02:44:11 PM 33.5454 -117.8802 139° Southeast 280 322 5,300 3,600 Climbing FlightAware ADS-B
Sat 02:44:16 PM 33.5410 -117.8741 128° Southeast 281 323 5,600 3,600 Climbing FlightAware ADS-B
Sat 02:44:21 PM 33.5376 -117.8673 119° Southeast 284 327 5,900 3,600 Climbing FlightAware ADS-B
Sat 02:44:26 PM 33.5348 -117.8586 110° East 290 334 6,200 3,000 Climbing FlightAware ADS-B
Sat 02:44:29 PM 33.5801 -117.8970 110° East 291 335 6,300 2,400 Climbing FlightAware ADS-B
Sat 02:44:31 PM 33.5333 -117.8508 101° East 293 337 6,400 3,429 Climbing FlightAware ADS-B
Sat 02:44:36 PM 33.5328 -117.8429 92° East 295 339 6,700 2,727 Climbing FlightAware ADS-B
Sat 02:44:42 PM 33.5332 -117.8345 85° East 296 341 6,900 1,200 Climbing FlightAware ADS-B
Sat 02:44:46 PM 33.5339 -117.8277 83° East 296 341 6,900 1,286 Level FlightAware ADS-B
Sat 02:44:56 PM 33.5363 -117.8111 78° East 301 346 7,200 2,526 Climbing FlightAware ADS-B
Sat 02:45:05 PM 33.5382 -117.7997 79° East 302 348 7,700 3,600 Climbing FlightAware ADS-B
Sat 02:45:11 PM 33.5406 -117.7862 77° East 298 343 8,100 3,667 Climbing FlightAware ADS-B
Sat 02:45:23 PM 33.5440 -117.7690 77° East 302 348 8,800 3,000 Climbing FlightAware ADS-B
Sat 02:45:27 PM 33.5455 -117.7613 77° East 304 350 8,900 3,333 Climbing FlightAware ADS-B
Sat 02:45:41 PM 33.5494 -117.7364 80° East 304 350 9,800 2,864 Climbing FlightAware ADS-B
Sat 02:46:11 PM 33.5559 -117.6849 81° East 329 379 11,000 2,364 Climbing FlightAware ADS-B
Sat 02:46:14 PM 33.5563 -117.6815 82° East 332 382 11,100 2,400 Climbing FlightAware ADS-B
Sat 02:46:41 PM 33.5634 -117.6292 80° East 352 405 12,200 2,516 Climbing FlightAware ADS-B
Sat 02:46:45 PM 33.5607 -117.6481 81° East 351 404 12,400 2,800 Climbing FlightAware ADS-B
Sat 02:47:11 PM 33.5712 -117.5743 80° East 361 415 13,600 2,800 Climbing FlightAware ADS-B
Sat 02:47:15 PM 33.5725 -117.5645 81° East 362 417 13,800 3,400 Climbing FlightAware ADS-B
Sat 02:47:41 PM 33.5799 -117.5110 80° East 367 422 15,300 3,188 Climbing FlightAware ADS-B
Sat 02:47:47 PM 33.5817 -117.4975 81° East 371 427 15,500 2,600 Climbing FlightAware ADS-B
Sat 02:48:11 PM 33.5855 -117.4482 87° East 378 435 16,600 2,714 Climbing FlightAware ADS-B
Sat 02:48:29 PM 33.5866 -117.4126 88° East 379 436 17,400 3,200 Climbing FlightAware ADS-B
Sat 02:48:41 PM 33.5874 -117.3876 87° East 381 438 18,200 3,273 Climbing FlightAware ADS-B
Sat 02:49:02 PM 33.5858 -117.4412 88° East 380 437 19,200 2,710 Climbing FlightAware ADS-B
Sat 02:49:12 PM 33.5896 -117.3204 87° East 385 443 19,600 2,615 Climbing FlightAware ADS-B
Sat 02:49:41 PM 33.5915 -117.2704 87° East 391 450 20,900 2,514 Climbing FlightAware ADS-B
Sat 02:50:26 PM 33.5957 -117.1606 87° East 401 461 22,700 2,400 Climbing FlightAware ADS-B
Sat 02:50:46 PM 33.5974 -117.1135 87° East 407 468 23,500 2,308 Climbing FlightAware ADS-B
Sat 02:51:05 PM 33.5989 -117.0718 88° East 411 473 24,200 2,118 Climbing FlightAware ADS-B (KBNG)
Sat 02:51:20 PM 33.6000 -117.0411 87° East 409 471 24,700 2,000 Climbing FlightAware ADS-B
Sat 02:51:35 PM 33.6013 -117.0020 88° East 416 479 25,200 2,000 Climbing FlightAware ADS-B (KBNG)
Sat 02:52:05 PM 33.6037 -116.9325 88° East 423 487 26,200 1,882 Climbing FlightAware ADS-B (KBNG)
Sat 02:52:26 PM 33.6055 -116.8853 87° East 427 491 26,800 1,784 Climbing FlightAware ADS-B
Sat 02:52:42 PM 33.6119 -116.8456 75° East 428 493 27,300 1,886 Climbing FlightAware ADS-B (KBNG)
Sat 02:53:01 PM 33.6236 -116.8114 61° Northeast 431 496 27,900 1,688 Climbing FlightAware ADS-B
Sat 02:53:14 PM 33.6402 -116.7789 58° Northeast 431 496 28,200 1,395 Climbing FlightAware ADS-B
Sat 02:53:44 PM 33.6731 -116.7182 57° Northeast 439 505 28,900 1,333 Climbing FlightAware ADS-B (KBNG)
Sat 02:54:17 PM 33.7059 -116.6571 57° Northeast 447 514 29,600 1,571 Climbing FlightAware ADS-B
Sat 02:54:26 PM 33.7160 -116.6380 58° Northeast 452 520 30,000 1,500 Climbing FlightAware ADS-B
Sat 02:54:57 PM 33.7420 -116.5892 58° Northeast 454 522 30,600 1,543 Climbing FlightAware ADS-B (KBNG)
Sat 02:55:36 PM 33.7983 -116.4831 58° Northeast 454 522 31,800 1,829 Climbing FlightAware ADS-B (KBNG)
Sat 02:56:19 PM 33.8474 -116.3929 56° Northeast 450 518 33,100 1,808 Climbing FlightAware ADS-B
Sat 02:56:49 PM 33.8792 -116.3354 57° Northeast 447 514 34,000 1,672 Climbing FlightAware ADS-B (KBNG)
Sat 02:57:20 PM 33.9184 -116.2640 57° Northeast 445 512 34,800 1,477 Climbing FlightAware ADS-B (KBNG)
Sat 02:57:54 PM 33.9564 -116.1943 57° Northeast 443 510 35,600 1,437 Climbing FlightAware ADS-B (EPLL / LCJ)
Sat 02:58:31 PM 33.9972 -116.1190 57° Northeast 441 507 36,500 933 Climbing FlightAware ADS-B (EPLL / LCJ)
Sat 02:59:24 PM 34.0564 -116.0096 57° Northeast 449 517 37,000 217 Climbing FlightAware ADS-B
Sat 03:00:49 PM 34.1538 -115.8305 58° Northeast 448 516 37,000  Level FlightAware ADS-B (EPLL / LCJ)
Sat 03:01:30 PM 34.2006 -115.7436 57° Northeast 453 521 37,000  Level FlightAware ADS-B (EPLL / LCJ)
Sat 03:02:02 PM 34.2326 -115.6836 57° Northeast 454 522 37,000  Level FlightAware ADS-B (KBNG)
Sat 03:04:03 PM 34.3743 -115.4175 57° Northeast 455 524 37,000 281 Level FlightAware ADS-B (EPLL / LCJ)
Sat 03:04:53 PM 34.4308 -115.3115 57° Northeast 452 520 37,800 745 Climbing FlightAware ADS-B (EPLL / LCJ)
Sat 03:06:44 PM 34.5562 -115.0748 57° Northeast 453 521 39,000 493 Climbing FlightAware ADS-B (EPLL / LCJ)
Sat 03:07:19 PM 34.5953 -115.0004 58° Northeast 453 521 39,000  Level FlightAware ADS-B (EPLL / LCJ)
Sat 03:07:53 PM 34.6336 -114.9276 58° Northeast 453 521 39,000  Level FlightAware ADS-B (EPLL / LCJ)
Sat 03:08:32 PM 34.6773 -114.8444 58° Northeast 453 521 39,000  Level FlightAware ADS-B (EPLL / LCJ)
Sat 03:09:38 PM 34.7513 -114.7025 58° Northeast 453 521 39,000  Level FlightAware ADS-B (EPLL / LCJ)
Sat 03:10:38 PM 34.8186 -114.5737 58° Northeast 453 521 39,000  Level FlightAware ADS-B (EPLL / LCJ)
Sat 03:11:08 PM 34.8522 -114.5090 58° Northeast 453 521 39,000  Level FlightAware ADS-B (EPLL / LCJ)
Sat 03:12:35 PM 34.9492 -114.3219 58° Northeast 455 524 39,000  Level FlightAware ADS-B (EPLL / LCJ)
Sat 03:13:11 PM 34.9899 -114.2430 58° Northeast 456 525 39,000  Level FlightAware ADS-B (EPLL / LCJ)
Sat 03:13:47 PM 35.0303 -114.1646 58° Northeast 456 525 39,000  Level FlightAware ADS-B (EPLL / LCJ)
Sat 03:14:23 PM 35.0706 -114.0861 58° Northeast 457 526 39,000  Level FlightAware ADS-B (EPLL / LCJ)
Sat 03:15:04 PM 35.1166 -113.9962 58° Northeast 458 527 39,000  Level FlightAware ADS-B (EPLL / LCJ)
Sat 03:15:40 PM 35.1572 -113.9168 58° Northeast 459 528 39,000  Level FlightAware ADS-B (EPLL / LCJ)
Sat 03:16:22 PM 35.2030 -113.8267 58° Northeast 459 528 39,000  Level FlightAware ADS-B (EPLL / LCJ)
Sat 03:16:58 PM 35.2438 -113.7467 58° Northeast 459 528 39,000  Level FlightAware ADS-B (EPLL / LCJ)
Sat 03:17:33 PM 35.2827 -113.6701 58° Northeast 459 528 39,000  Level FlightAware ADS-B (EPLL / LCJ)
Sat 03:18:08 PM 35.3217 -113.5929 58° Northeast 457 526 39,000  Level FlightAware ADS-B (EPLL / LCJ)
Sat 03:18:42 PM 35.3595 -113.5182 58° Northeast 457 526 39,000  Level FlightAware ADS-B (EPLL / LCJ)
Sat 03:20:39 PM 35.4891 -113.2605 59° Northeast 450 518 39,000  Level FlightAware ADS-B (EPLL / LCJ)
Sat 03:21:15 PM 35.5286 -113.1814 60° Northeast 449 517 39,000  Level FlightAware ADS-B (EPLL / LCJ)
Sat 03:22:30 PM 35.6104 -113.0174 60° Northeast 448 516 39,000  Level FlightAware ADS-B (EPLL / LCJ)
Sat 03:22:37 PM 35.6179 -113.0023 60° Northeast 448 516 39,000  Level FlightAware ADS-B (EPLL / LCJ)
Sat 03:23:47 PM 35.6874 -112.8623 59° Northeast 453 521 39,000  Level FlightAware ADS-B
Sat 03:24:38 PM 35.7493 -112.7372 59° Northeast 452 520 39,000  Level FlightAware ADS-B
Sat 03:25:12 PM 35.7859 -112.6629 60° Northeast 449 517 39,000  Level FlightAware ADS-B (EPLL / LCJ)
Sat 03:26:38 PM 35.8792 -112.4729 60° Northeast 451 519 39,000  Level FlightAware ADS-B (EPLL / LCJ)
Sat 03:29:01 PM 36.0353 -112.1526 60° Northeast 455 524 39,000  Level FlightAware ADS-B (EPLL / LCJ)
Sat 03:30:19 PM 36.1193 -111.9787 59° Northeast 458 527 39,000  Level FlightAware ADS-B
Sat 03:32:08 PM 36.2380 -111.7320 59° Northeast 458 527 39,000  Level FlightAware ADS-B
Sat 03:33:35 PM 36.3312 -111.5372 60° Northeast 457 526 39,000  Level FlightAware ADS-B
Sat 03:34:36 PM 36.3946 -111.4036 60° Northeast 456 525 39,000  Level FlightAware ADS-B
Sat 03:35:34 PM 36.4581 -111.2695 60° Northeast 457 526 39,000  Level FlightAware ADS-B
Sat 03:36:35 PM 36.5229 -111.1321 60° Northeast 456 525 39,000  Level FlightAware ADS-B
Sat 03:37:57 PM 36.6102 -110.9461 60° Northeast 457 526 39,000  Level FlightAware ADS-B (KGUC)
Sat 03:38:58 PM 36.6744 -110.8085 60° Northeast 456 525 39,000  Level FlightAware ADS-B (KGUC)
Sat 03:39:34 PM 36.7104 -110.7311 60° Northeast 456 525 39,000  Level FlightAware ADS-B (KGUC)
Sat 03:40:07 PM 36.7448 -110.6572 60° Northeast 457 526 39,000  Level FlightAware ADS-B (KGUC)
Sat 03:40:38 PM 36.7788 -110.5838 60° Northeast 457 526 39,000  Level FlightAware ADS-B (KGUC)
Sat 03:41:18 PM 36.8222 -110.4899 60° Northeast 456 525 39,000  Level FlightAware ADS-B (KGUC)
Sat 03:41:49 PM 36.8544 -110.4201 60° Northeast 456 525 39,000  Level FlightAware ADS-B
Sat 03:42:27 PM 36.8954 -110.3311 60° Northeast 457 526 39,000  Level FlightAware ADS-B (KGUC)
Sat 03:43:05 PM 36.9352 -110.2444 60° Northeast 457 526 39,000  Level FlightAware ADS-B (KGUC)
Sat 03:43:36 PM 36.9656 -110.1781 60° Northeast 456 525 39,000  Level FlightAware ADS-B (KGUC)
Sat 03:44:07 PM 36.9989 -110.1053 60° Northeast 457 526 39,000  Level FlightAware ADS-B (KGUC)
Sat 03:44:47 PM 37.0419 -110.0106 61° Northeast 457 526 39,000  Level FlightAware ADS-B (KGUC)
Sat 03:45:24 PM 37.0798 -109.9272 61° Northeast 458 527 39,000  Level FlightAware ADS-B (KGUC)
Sat 03:45:54 PM 37.1113 -109.8576 61° Northeast 459 528 39,000  Level FlightAware ADS-B (KGUC)
Sat 03:46:28 PM 37.1455 -109.7820 61° Northeast 460 529 39,000  Level FlightAware ADS-B
Sat 03:47:06 PM 37.1850 -109.6944 61° Northeast 460 529 39,000  Level FlightAware ADS-B (KGUC)
Sat 03:47:48 PM 37.2302 -109.5940 61° Northeast 460 529 39,000  Level FlightAware ADS-B (KGUC)
Sat 03:48:28 PM 37.2717 -109.5014 61° Northeast 462 532 39,000  Level FlightAware ADS-B (KGUC)
Sat 03:48:59 PM 37.3022 -109.4334 61° Northeast 462 532 39,000  Level FlightAware ADS-B (KGUC)
Sat 03:49:29 PM 37.3362 -109.3572 61° Northeast 463 533 39,000  Level FlightAware ADS-B (KGUC)
Sat 03:50:06 PM 37.3745 -109.2712 61° Northeast 463 533 39,000  Level FlightAware ADS-B
Sat 03:50:41 PM 37.4112 -109.1882 61° Northeast 464 534 39,000  Level FlightAware ADS-B (KGUC)
Sat 03:51:23 PM 37.4552 -109.0891 61° Northeast 465 535 39,000  Level FlightAware ADS-B (KGUC)
Sat 03:51:54 PM 37.4832 -109.0259 61° Northeast 465 535 39,000  Level FlightAware ADS-B (KGUC)
Sat 03:52:36 PM 37.5305 -108.9187 61° Northeast 464 534 39,000  Level FlightAware ADS-B (KGUC)
Sat 03:53:06 PM 37.5611 -108.8494 61° Northeast 464 534 39,000  Level FlightAware ADS-B
Sat 03:53:48 PM 37.6027 -108.7544 61° Northeast 462 532 39,000  Level FlightAware ADS-B (KGUC)
Sat 03:54:18 PM 37.6357 -108.6786 61° Northeast 461 531 39,000  Level FlightAware ADS-B (KGUC)
Sat 03:54:54 PM 37.6642 -108.6133 61° Northeast 460 529 39,000  Level FlightAware ADS-B
Sat 03:55:24 PM 37.7021 -108.5259 61° Northeast 459 528 39,000  Level FlightAware ADS-B (KGUC)
Sat 03:55:59 PM 37.7394 -108.4397 61° Northeast 460 529 39,000  Level FlightAware ADS-B
Sat 03:56:36 PM 37.7766 -108.3539 61° Northeast 460 529 39,000  Level FlightAware ADS-B (KGUC)
Sat 03:57:06 PM 37.8053 -108.2876 61° Northeast 460 529 39,000  Level FlightAware ADS-B (KGUC)
Sat 03:57:37 PM 37.8383 -108.2113 61° Northeast 460 529 39,000  Level FlightAware ADS-B (KGUC)
Sat 03:58:07 PM 37.8697 -108.1382 62° Northeast 460 529 39,000  Level FlightAware ADS-B (KGUC)
Sat 03:58:40 PM 37.9014 -108.0644 62° Northeast 461 531 39,000  Level FlightAware ADS-B (KGUC)
Sat 03:59:10 PM 37.9320 -107.9929 62° Northeast 462 532 39,000  Level FlightAware ADS-B (KGUC)
Sat 03:59:40 PM 37.9626 -107.9212 62° Northeast 463 533 39,000  Level FlightAware ADS-B (KGUC)
Sat 04:00:18 PM 38.0016 -107.8293 62° Northeast 464 534 39,000  Level FlightAware ADS-B
Sat 04:00:49 PM 38.0340 -107.7530 62° Northeast 466 536 39,000  Level FlightAware ADS-B (KGUC)
Sat 04:01:22 PM 38.0668 -107.6755 62° Northeast 466 536 39,000  Level FlightAware ADS-B (KGUC)
Sat 04:02:10 PM 38.1154 -107.5608 62° Northeast 465 535 39,000  Level FlightAware ADS-B
Sat 04:02:46 PM 38.1508 -107.4764 62° Northeast 464 534 39,000  Level FlightAware ADS-B
Sat 04:03:23 PM 38.1875 -107.3891 62° Northeast 464 534 39,000  Level FlightAware ADS-B
Sat 04:03:53 PM 38.2193 -107.3134 62° Northeast 463 533 39,000  Level FlightAware ADS-B
Sat 04:04:23 PM 38.2505 -107.2389 62° Northeast 462 532 39,000  Level FlightAware ADS-B
Sat 04:04:59 PM 38.2827 -107.1616 62° Northeast 462 532 39,000  Level FlightAware ADS-B (KGUC)
Sat 04:05:37 PM 38.3241 -107.0622 62° Northeast 459 528 39,000  Level FlightAware ADS-B
Sat 04:06:21 PM 38.3664 -106.9603 62° Northeast 458 527 39,000  Level FlightAware ADS-B
Sat 04:06:51 PM 38.3946 -106.8916 62° Northeast 456 525 39,000  Level FlightAware ADS-B
Sat 04:07:23 PM 38.4279 -106.8108 62° Northeast 457 526 39,000  Level FlightAware ADS-B
Sat 04:07:53 PM 38.4554 -106.7438 62° Northeast 457 526 39,000  Level FlightAware ADS-B
Sat 04:08:23 PM 38.4864 -106.6685 62° Northeast 459 528 39,000  Level FlightAware ADS-B
Sat 04:08:53 PM 38.5158 -106.5967 62° Northeast 460 529 39,000  Level FlightAware ADS-B
Sat 04:09:26 PM 38.5479 -106.5181 63° Northeast 460 529 39,000  Level FlightAware ADS-B
Sat 04:09:56 PM 38.5774 -106.4452 63° Northeast 462 532 39,000  Level FlightAware ADS-B
Sat 04:10:30 PM 38.6116 -106.3612 63° Northeast 464 534 39,000  Level FlightAware ADS-B
Sat 04:11:00 PM 38.6414 -106.2877 63° Northeast 466 536 39,000  Level FlightAware ADS-B
Sat 04:11:33 PM 38.6732 -106.2091 63° Northeast 467 537 39,000  Level FlightAware ADS-B
Sat 04:12:05 PM 38.7046 -106.1312 63° Northeast 468 539 39,000  Level FlightAware ADS-B
Sat 04:12:35 PM 38.7353 -106.0551 63° Northeast 470 541 39,000  Level FlightAware ADS-B
Sat 04:13:05 PM 38.7652 -105.9805 63° Northeast 471 542 39,000  Level FlightAware ADS-B
Sat 04:13:39 PM 38.7968 -105.9017 63° Northeast 471 542 39,000  Level FlightAware ADS-B
Sat 04:14:10 PM 38.8290 -105.8208 63° Northeast 471 542 39,000  Level FlightAware ADS-B
Sat 04:14:40 PM 38.8573 -105.7497 63° Northeast 470 541 39,000  Level FlightAware ADS-B
Sat 04:15:16 PM 38.8865 -105.6760 63° Northeast 470 541 39,000  Level FlightAware ADS-B
Sat 04:15:52 PM 38.9292 -105.5680 63° Northeast 470 541 39,000  Level FlightAware ADS-B
Sat 04:16:26 PM 38.9607 -105.4888 63° Northeast 468 539 39,000  Level FlightAware ADS-B
Sat 04:17:01 PM 38.9962 -105.3989 63° Northeast 467 537 39,000  Level FlightAware ADS-B
Sat 04:17:41 PM 39.0346 -105.3010 63° Northeast 464 534 39,000  Level FlightAware ADS-B
Sat 04:18:21 PM 39.0705 -105.2089 63° Northeast 462 532 39,000  Level FlightAware ADS-B
Sat 04:19:01 PM 39.1097 -105.1085 63° Northeast 461 531 39,000  Level FlightAware ADS-B
Sat 04:19:34 PM 39.1417 -105.0264 64° Northeast 462 532 39,000  Level FlightAware ADS-B
Sat 04:20:04 PM 39.1716 -104.9492 64° Northeast 462 532 39,000  Level FlightAware ADS-B
Sat 04:20:41 PM 39.2069 -104.8580 64° Northeast 465 535 39,000  Level FlightAware ADS-B
Sat 04:21:14 PM 39.2386 -104.7756 64° Northeast 464 534 39,000  Level FlightAware ADS-B
Sat 04:21:45 PM 39.2687 -104.6976 64° Northeast 464 534 39,000  Level FlightAware ADS-B
Sat 04:22:15 PM 39.2966 -104.6250 64° Northeast 464 534 39,000  Level FlightAware ADS-B
Sat 04:23:01 PM 39.3403 -104.5108 64° Northeast 463 533 39,000  Level FlightAware ADS-B
Sat 04:23:34 PM 39.3714 -104.4290 64° Northeast 463 533 39,000  Level FlightAware ADS-B
Sat 04:24:14 PM 39.4092 -104.3293 64° Northeast 462 532 39,000  Level FlightAware ADS-B
Sat 04:24:46 PM 39.4388 -104.2513 64° Northeast 462 532 39,000  Level FlightAware ADS-B
Sat 04:25:22 PM 39.4725 -104.1622 64° Northeast 462 532 39,000  Level FlightAware ADS-B
Sat 04:26:02 PM 39.5105 -104.0616 64° Northeast 462 532 39,000  Level FlightAware ADS-B
Sat 04:26:40 PM 39.5413 -103.9799 64° Northeast 461 531 39,000  Level FlightAware ADS-B
Sat 04:27:22 PM 39.5826 -103.8695 64° Northeast 460 529 39,000  Level FlightAware ADS-B
Sat 04:28:02 PM 39.6145 -103.7838 64° Northeast 459 528 39,000  Level FlightAware ADS-B
Sat 04:28:33 PM 39.6496 -103.6896 64° Northeast 459 528 39,000  Level FlightAware ADS-B
Sat 04:29:03 PM 39.6773 -103.6149 64° Northeast 460 529 39,000  Level FlightAware ADS-B
Sat 04:29:35 PM 39.7028 -103.5463 64° Northeast 461 531 39,000  Level FlightAware ADS-B
Sat 04:30:07 PM 39.7327 -103.4651 65° Northeast 462 532 39,000  Level FlightAware ADS-B
Sat 04:30:42 PM 39.7674 -103.3706 65° Northeast 462 532 39,000  Level FlightAware ADS-B
Sat 04:31:14 PM 39.7800 -103.3364 65° Northeast 462 532 39,000  Level FlightAware ADS-B
Sat 04:32:27 PM 39.8465 -103.1549 65° Northeast 461 531 39,000  Level FlightAware ADS-B
Sat 04:32:58 PM 39.8928 -103.0277 65° Northeast 461 531 39,000  Level FlightAware ADS-B
Sat 04:33:28 PM 39.9172 -102.9604 65° Northeast 461 531 39,000  Level FlightAware ADS-B
Sat 04:34:01 PM 39.9491 -102.8725 65° Northeast 461 531 39,000  Level FlightAware ADS-B
Sat 04:34:34 PM 39.9794 -102.7885 65° Northeast 461 531 39,000  Level FlightAware ADS-B
Sat 04:35:37 PM 40.0368 -102.6284 65° Northeast 463 533 39,000  Level FlightAware ADS-B
Sat 04:36:08 PM 40.0623 -102.5569 65° Northeast 463 533 39,000  Level FlightAware ADS-B
Sat 04:36:41 PM 40.0942 -102.4677 65° Northeast 465 535 39,000  Level FlightAware ADS-B
Sat 04:37:15 PM 40.1253 -102.3805 65° Northeast 466 536 39,000  Level FlightAware ADS-B
Sat 04:38:00 PM 40.1661 -102.2652 65° Northeast 469 540 39,000  Level FlightAware ADS-B
Sat 04:38:37 PM 40.1966 -102.1785 65° Northeast 470 541 39,000  Level FlightAware ADS-B
Sat 04:39:15 PM 40.2292 -102.0860 65° Northeast 471 542 39,000  Level FlightAware ADS-B
Sat 04:39:50 PM 40.2658 -101.9817 65° Northeast 471 542 39,000  Level FlightAware ADS-B
Sat 04:41:21 PM 40.3411 -101.7664 66° East 469 540 39,000  Level FlightAware ADS-B
Sat 04:42:21 PM 40.4008 -101.5939 66° East 469 540 39,000  Level FlightAware ADS-B
Sat 04:43:56 PM 40.4854 -101.3478 66° East 467 537 39,000  Level FlightAware ADS-B
Sat 04:44:41 PM 40.5259 -101.2300 66° East 468 539 39,000  Level FlightAware ADS-B
Sat 04:45:14 PM 40.5545 -101.1462 66° East 470 541 39,000  Level FlightAware ADS-B
Sat 04:45:44 PM 40.5783 -101.0762 66° East 471 542 39,000  Level FlightAware ADS-B
Sat 04:46:38 PM 40.6293 -100.9248 66° East 472 543 39,000  Level FlightAware ADS-B
Sat 04:52:55 PM 40.9624 -99.9202 67° East 483 556 39,000  Level FlightAware ADS-B
Sat 04:53:26 PM 40.9896 -99.8367 67° East 484 557 39,000  Level FlightAware ADS-B
Sat 04:53:56 PM 41.0160 -99.7549 67° East 484 557 39,000  Level FlightAware ADS-B
Sat 04:54:27 PM 41.0429 -99.6711 67° East 482 555 39,000  Level FlightAware ADS-B
Sat 04:55:47 PM 41.1126 -99.4552 67° East 478 550 39,000  Level FlightAware ADS-B
Sat 04:56:17 PM 41.1385 -99.3739 67° East 478 550 39,000  Level FlightAware ADS-B
Sat 04:56:47 PM 41.1643 -99.2927 67° East 478 550 39,000  Level FlightAware ADS-B
Sat 04:57:20 PM 41.1929 -99.2027 67° East 478 550 39,000  Level FlightAware ADS-B
Sat 04:57:51 PM 41.2187 -99.1212 67° East 478 550 39,000  Level FlightAware ADS-B
Sat 04:58:21 PM 41.2443 -99.0399 67° East 479 551 39,000  Level FlightAware ADS-B
Sat 04:58:55 PM 41.2731 -98.9479 67° East 480 552 39,000  Level FlightAware ADS-B
Sat 04:59:26 PM 41.2997 -98.8632 67° East 480 552 39,000  Level FlightAware ADS-B
Sat 04:59:56 PM 41.3252 -98.7820 67° East 480 552 39,000  Level FlightAware ADS-B
Sat 05:00:26 PM 41.3509 -98.6998 67° East 481 554 39,000  Level FlightAware ADS-B
Sat 05:00:57 PM 41.3771 -98.6156 68° East 481 554 39,000  Level FlightAware ADS-B
Sat 05:01:44 PM 41.4168 -98.4868 68° East 481 554 39,000  Level FlightAware ADS-B
Sat 05:02:14 PM 41.4423 -98.4039 68° East 482 555 39,000  Level FlightAware ADS-B
Sat 05:02:45 PM 41.4681 -98.3201 68° East 482 555 39,000  Level FlightAware ADS-B
Sat 05:03:16 PM 41.4942 -98.2346 68° East 482 555 39,000  Level FlightAware ADS-B
Sat 05:03:50 PM 41.5226 -98.1417 68° East 482 555 39,000  Level FlightAware ADS-B
Sat 05:04:23 PM 41.5503 -98.0512 68° East 483 556 39,000  Level FlightAware ADS-B
Sat 05:05:09 PM 41.5895 -97.9218 68° East 485 558 39,000  Level FlightAware ADS-B
Sat 05:05:40 PM 41.6149 -97.8370 68° East 486 559 39,000  Level FlightAware ADS-B
Sat 05:06:10 PM 41.6399 -97.7535 68° East 486 559 39,000  Level FlightAware ADS-B
Sat 05:06:40 PM 41.6651 -97.6694 68° East 487 560 39,000  Level FlightAware ADS-B
Sat 05:07:11 PM 41.6905 -97.5843 68° East 487 560 39,000  Level FlightAware ADS-B
Sat 05:07:59 PM 41.7304 -97.4505 68° East 487 560 39,000  Level FlightAware ADS-B
Sat 05:08:29 PM 41.7557 -97.3657 68° East 489 563 39,000  Level FlightAware ADS-B
Sat 05:08:58 PM 41.7796 -97.2851 69° East 490 564 39,000  Level FlightAware ADS-B
Sat 05:09:28 PM 41.8047 -97.1997 69° East 491 565 39,000  Level FlightAware ADS-B
Sat 05:09:58 PM 41.8297 -97.1143 69° East 492 566 39,000  Level FlightAware ADS-B
Sat 05:10:28 PM 41.8545 -97.0291 69° East 493 567 39,000  Level FlightAware ADS-B
Sat 05:10:59 PM 41.8798 -96.9426 69° East 493 567 39,000  Level FlightAware ADS-B
Sat 05:11:29 PM 41.9048 -96.8568 69° East 494 568 39,000  Level FlightAware ADS-B
Sat 05:11:59 PM 41.9300 -96.7699 69° East 493 567 39,000  Level FlightAware ADS-B
Sat 05:12:30 PM 41.9546 -96.6842 69° East 495 570 39,000  Level FlightAware ADS-B
Sat 05:13:00 PM 41.9796 -96.5974 69° East 494 568 39,000  Level FlightAware ADS-B
Sat 05:13:31 PM 42.0049 -96.5093 69° East 494 568 39,000  Level FlightAware ADS-B
Sat 05:14:02 PM 42.0305 -96.4197 69° East 494 568 39,000  Level FlightAware ADS-B
Sat 05:14:39 PM 42.0602 -96.3151 69° East 493 567 39,000  Level FlightAware ADS-B
Sat 05:15:19 PM 42.0924 -96.2013 69° East 491 565 39,000  Level FlightAware ADS-B
Sat 05:15:49 PM 42.1171 -96.1142 69° East 491 565 39,000  Level FlightAware ADS-B
Sat 05:16:19 PM 42.1412 -96.0280 69° East 489 563 39,000  Level FlightAware ADS-B
Sat 05:16:50 PM 42.1651 -95.9421 70° East 489 563 39,000  Level FlightAware ADS-B
Sat 05:17:21 PM 42.1902 -95.8519 69° East 487 560 39,000  Level FlightAware ADS-B
Sat 05:17:52 PM 42.2147 -95.7643 69° East 485 558 39,000  Level FlightAware ADS-B
Sat 05:18:25 PM 42.2400 -95.6734 70° East 483 556 39,000  Level FlightAware ADS-B
Sat 05:18:55 PM 42.2635 -95.5880 70° East 482 555 39,000  Level FlightAware ADS-B
Sat 05:19:26 PM 42.2878 -95.5004 70° East 481 554 39,000  Level FlightAware ADS-B
Sat 05:19:57 PM 42.3115 -95.4138 70° East 481 554 39,000  Level FlightAware ADS-B
Sat 05:20:06 PM 42.3185 -95.3879 71° East 481 554 39,000  Level FlightAware ADS-B
Sat 05:20:22 PM 42.3285 -95.3407 76° East 486 559 39,000  Level FlightAware ADS-B
Sat 05:20:37 PM 42.3348 -95.2961 81° East 490 564 39,000  Level FlightAware ADS-B
Sat 05:20:47 PM 42.3375 -95.2660 84° East 493 567 39,000  Level FlightAware ADS-B
Sat 05:21:18 PM 42.3442 -95.1714 85° East 494 568 39,000  Level FlightAware ADS-B
Sat 05:21:49 PM 42.3507 -95.0779 85° East 496 571 39,000  Level FlightAware ADS-B
Sat 05:22:20 PM 42.3574 -94.9810 85° East 496 571 39,000  Level FlightAware ADS-B
Sat 05:22:53 PM 42.3646 -94.8799 85° East 496 571 39,000  Level FlightAware ADS-B
Sat 05:23:11 PM 42.3685 -94.8240 85° East 494 568 39,000  Level FlightAware ADS-B
Sat 05:23:24 PM 42.3715 -94.7838 84° East 494 568 39,000  Level FlightAware ADS-B
Sat 05:23:43 PM 42.3743 -94.7432 85° East 495 570 39,000  Level FlightAware ADS-B
Sat 05:24:01 PM 42.3791 -94.6719 85° East 495 570 39,000  Level FlightAware ADS-B
Sat 05:24:13 PM 42.3817 -94.6332 85° East 495 570 39,000  Level FlightAware ADS-B
Sat 05:24:38 PM 42.3866 -94.5572 85° East 495 570 39,000  Level FlightAware ADS-B
Sat 05:24:44 PM 42.3872 -94.5473 85° East 496 571 39,000  Level FlightAware ADS-B
Sat 05:25:08 PM 42.3925 -94.4642 85° East 496 571 39,000  Level FlightAware ADS-B
Sat 05:25:14 PM 42.3931 -94.4550 85° East 496 571 39,000  Level FlightAware ADS-B
Sat 05:25:44 PM 42.3996 -94.3534 85° East 496 571 39,000  Level FlightAware ADS-B
Sat 05:25:58 PM 42.4023 -94.3114 85° East 496 571 39,000  Level FlightAware ADS-B
Sat 05:26:14 PM 42.4055 -94.2599 85° East 497 572 39,000  Level FlightAware ADS-B
Sat 05:26:44 PM 42.4110 -94.1721 85° East 497 572 39,000  Level FlightAware ADS-B
Sat 05:26:45 PM 42.4114 -94.1653 85° East 497 572 39,000 -200 Level FlightAware ADS-B
Sat 05:27:14 PM 42.4168 -94.0784 85° East 498 573 38,900 -353 Descending FlightAware ADS-B
Sat 05:27:19 PM 42.4178 -94.0617 85° East 498 573 38,800 -1,029 Descending FlightAware ADS-B
Sat 05:27:49 PM 42.4236 -93.9680 85° East 499 574 38,300 -900 Descending FlightAware ADS-B
Sat 05:27:59 PM 42.4253 -93.9389 86° East 498 573 38,200 -800 Descending FlightAware ADS-B
Sat 05:28:19 PM 42.4290 -93.8752 86° East 495 570 37,900 -933 Descending FlightAware ADS-B
Sat 05:28:44 PM 42.4333 -93.7985 86° East 493 567 37,500 -971 Descending FlightAware ADS-B
Sat 05:29:27 PM 42.4413 -93.6672 85° East 503 579 36,800 -960 Descending FlightAware ADS-B
Sat 05:29:59 PM 42.4472 -93.5732 85° East 510 587 36,300 -968 Descending FlightAware ADS-B
Sat 05:30:29 PM 42.4533 -93.4696 86° East 511 588 35,800 -1,000 Descending FlightAware ADS-B
Sat 05:30:59 PM 42.4583 -93.3769 86° East 512 589 35,300 -787 Descending FlightAware ADS-B
Sat 05:31:30 PM 42.4634 -93.2796 86° East 514 592 35,000 -136 Descending FlightAware ADS-B
Sat 05:33:11 PM 42.4810 -92.9521 86° East 507 583 35,000  Level FlightAware ADS-B (SVBC / BLA)
Sat 05:33:53 PM 42.4878 -92.8219 86° East 509 586 35,000  Level FlightAware ADS-B (SVBC / BLA)
Sat 05:34:25 PM 42.4928 -92.7214 86° East 513 590 35,000  Level FlightAware ADS-B (SVBC / BLA)
Sat 05:35:08 PM 42.4996 -92.5814 86° East 514 592 35,000  Level FlightAware ADS-B (SVBC / BLA)
Sat 05:35:38 PM 42.5041 -92.4860 86° East 515 593 35,000  Level FlightAware ADS-B (SVBC / BLA)
Sat 05:36:20 PM 42.5106 -92.3478 86° East 516 594 35,000  Level FlightAware ADS-B (SVBC / BLA)
Sat 05:36:51 PM 42.5152 -92.2496 86° East 517 595 35,000  Level FlightAware ADS-B (SVBC / BLA)
Sat 05:37:45 PM 42.5213 -92.1147 87° East 518 596 35,000  Level FlightAware ADS-B (SVBC / BLA)
Sat 05:38:20 PM 42.5246 -91.9628 89° East 521 600 35,000 -1,256 Level FlightAware ADS-B (SVBC / BLA)
Sat 05:39:11 PM 42.5254 -91.7963 90° East 517 595 33,200 -1,250 Descending FlightAware ADS-B (SVBC / BLA)
Sat 05:39:56 PM 42.5263 -91.6535 89° East 516 594 33,000 -156 Descending FlightAware ADS-B (SVBC / BLA)
Sat 05:40:28 PM 42.5268 -91.5486 90° East 519 597 33,000  Level FlightAware ADS-B (SVBC / BLA)
Sat 05:40:58 PM 42.5270 -91.4503 90° East 520 598 33,000  Level FlightAware ADS-B (SVBC / BLA)
Sat 05:41:32 PM 42.5271 -91.3391 90° East 520 598 33,000 -539 Level FlightAware ADS-B (KBHM)
Sat 05:42:27 PM 42.5271 -91.3687 90° East 517 595 32,200 -907 Descending FlightAware ADS-B
Sat 05:44:24 PM 42.5263 -90.7809 90° East 527 606 30,400 -1,007 Descending FlightAware ADS-B (KBHM)
Sat 05:44:56 PM 42.5257 -90.6749 90° East 530 610 29,700 -1,294 Descending FlightAware ADS-B (SVBC / BLA)
Sat 05:45:15 PM 42.5253 -90.6086 90° East 534 615 29,300 -1,368 Descending FlightAware ADS-B (SVBC / BLA)
Sat 05:45:53 PM 42.5243 -90.4828 91° East 535 616 28,400 -1,421 Descending FlightAware ADS-B (SVBC / BLA)
Sat 05:46:31 PM 42.5229 -90.3614 91° East 504 580 27,500 -1,538 Descending FlightAware ADS-B (KBHM)
Sat 05:47:11 PM 42.5221 -90.2413 90° East 486 559 26,400 -1,397 Descending FlightAware ADS-B (KBHM)
Sat 05:47:44 PM 42.5218 -90.1470 90° East 482 555 25,800 -1,012 Descending FlightAware ADS-B (KBHM)
Sat 05:48:34 PM 42.5205 -89.9872 91° East 477 549 25,000 -1,011 Descending FlightAware ADS-B (KBHM)
Sat 05:49:13 PM 42.5194 -89.8740 91° East 469 540 24,300 -1,013 Descending FlightAware ADS-B (KBHM)
Sat 05:49:51 PM 42.5181 -89.7590 91° East 463 533 23,700 -1,651 Descending FlightAware ADS-B (KBHM)
Sat 05:51:02 PM 42.5153 -89.5643 91° East 452 520 21,300 -1,864 Descending FlightAware ADS-B (KBHM)
Sat 05:51:34 PM 42.5136 -89.4690 92° East 445 512 20,500 -1,582 Descending FlightAware ADS-B (KBHM)
Sat 05:52:33 PM 42.5109 -89.3046 91° East 438 504 18,900 -1,467 Descending FlightAware ADS-B (KBHM)
Sat 05:53:04 PM 42.5094 -89.2218 92° East 432 497 18,300 -1,377 Descending FlightAware ADS-B (KBHM)
Sat 05:53:34 PM 42.5081 -89.1438 91° East 423 487 17,500 -2,656 Descending FlightAware ADS-B (KBHM)
Sat 05:54:05 PM 42.5077 -89.0595 90° East 430 495 15,600 -3,130 Descending FlightAware ADS-B (KMSN)
Sat 05:54:20 PM 42.5079 -89.0177 90° East 433 498 15,100 -1,469 Descending FlightAware ADS-B (KMSN)
Sat 05:54:54 PM 42.5041 -88.9350 102° East 436 502 14,400 -1,333 Descending FlightAware ADS-B (KBHM)
Sat 05:55:14 PM 42.4907 -88.8803 113° Southeast 437 503 13,900 -1,831 Descending FlightAware ADS-B (KBHM)
Sat 05:55:53 PM 42.4648 -88.7946 113° Southeast 426 490 12,600 -2,025 Descending FlightAware ADS-B (KBHM)
Sat 05:56:34 PM 42.4294 -88.6783 112° Southeast 413 475 11,200 -1,125 Descending FlightAware ADS-B (KBHM)
Sat 05:57:13 PM 42.4032 -88.5921 113° Southeast 400 460 11,100 -80 Descending FlightAware ADS-B (KBHM)
Sat 05:57:49 PM 42.3761 -88.5035 112° Southeast 400 460 11,100  Level FlightAware ADS-B
Sat 05:58:24 PM 42.3538 -88.4284 112° Southeast 403 464 11,100  Level FlightAware ADS-B (KBHM)
Sat 05:58:43 PM 42.3363 -88.3831 123° Southeast 383 441 11,100 -122 Level FlightAware ADS-B (KBHM)
Sat 05:59:13 PM 42.3058 -88.3304 129° Southeast 347 399 11,000 -787 Descending FlightAware ADS-B (KBHM)
Sat 05:59:44 PM 42.2742 -88.2772 129° Southeast 339 390 10,300 -1,320 Descending FlightAware ADS-B (KBHM)
Sat 06:00:03 PM 42.2565 -88.2474 129° Southeast 334 384 9,900 -900 Descending FlightAware ADS-B (KBHM)
Sat 06:00:24 PM 42.2361 -88.2137 130° Southeast 320 368 9,700 -439 Descending FlightAware ADS-B (KBHM)
Sat 06:00:44 PM 42.2181 -88.1841 129° Southeast 302 348 9,600 -367 Descending FlightAware ADS-B (KBHM)
Sat 06:01:13 PM 42.1929 -88.1444 136° Southeast 269 310 9,400 -600 Descending FlightAware ADS-B (KBHM)
Sat 06:01:34 PM 42.1750 -88.1235 139° Southeast 248 285 9,100 -900 Descending FlightAware ADS-B (KBHM)
Sat 06:01:53 PM 42.1649 -88.1115 139° Southeast 233 268 8,800 -1,050 Descending FlightAware ADS-B (KBHM)
Sat 06:02:14 PM 42.1419 -88.0846 139° Southeast 227 261 8,400 -1,171 Descending FlightAware ADS-B (KBHM)
Sat 06:02:34 PM 42.1256 -88.0659 140° Southeast 225 259 8,000 -1,077 Descending FlightAware ADS-B (KBHM)
Sat 06:02:53 PM 42.1134 -88.0518 138° Southeast 221 254 7,700 -1,000 Descending FlightAware ADS-B (KBHM)
Sat 06:03:04 PM 42.1036 -88.0379 127° Southeast 223 257 7,500 -1,161 Descending FlightAware ADS-B (KBHM)
Sat 06:03:24 PM 42.0949 -88.0153 107° East 227 261 7,100 -490 Descending FlightAware ADS-B (KBHM)
Sat 06:03:53 PM 42.0916 -87.9719 90° East 228 262 7,100  Level FlightAware ADS-B (KBHM)
Sat 06:04:14 PM 42.0918 -87.9419 90° East 228 262 7,100  Level FlightAware ADS-B (KBHM)
Sat 06:04:34 PM 42.0920 -87.9195 89° East 226 260 7,100  Level FlightAware ADS-B (KBHM)
Sat 06:05:14 PM 42.0919 -87.8570 90° East 229 264 7,100  Level FlightAware ADS-B (KBHM)
Sat 06:05:34 PM 42.0916 -87.8282 90° East 230 265 7,100 -150 Level FlightAware ADS-B (KBHM)
Sat 06:05:54 PM 42.0917 -87.7995 90° East 228 262 7,000 -923 Descending FlightAware ADS-B (KBHM)
Sat 06:06:13 PM 42.0918 -87.7729 90° East 226 260 6,500 -1,692 Descending FlightAware ADS-B (KBHM)
Sat 06:06:33 PM 42.0917 -87.7523 90° East 225 259 5,900 -1,610 Descending FlightAware ADS-B (KBHM)
Sat 06:06:54 PM 42.0916 -87.7161 90° East 219 252 5,400 -1,548 Descending FlightAware ADS-B (KBHM)
Sat 06:07:04 PM 42.0916 -87.7102 91° East 220 253 5,100 -1,548 Descending FlightAware ADS-B (KBHM)
Sat 06:07:25 PM 42.0916 -87.7053 90° East 220 253 4,600 -1,350 Descending FlightAware ADS-B
Sat 06:07:44 PM 42.0914 -87.6486 90° East 219 252 4,200 -769 Descending FlightAware ADS-B (KBHM)
Sat 06:08:04 PM 42.0913 -87.6235 92° East 218 251 4,100 -207 Descending FlightAware ADS-B (KBHM)
Sat 06:08:13 PM 42.0896 -87.6085 107° East 217 250 4,100  Level FlightAware ADS-B (KBHM)
Sat 06:08:24 PM 42.0837 -87.5964 130° Southeast 215 247 4,100  Level FlightAware ADS-B (KBHM)
Sat 06:08:34 PM 42.0770 -87.5901 154° Southeast 207 238 4,100  Level FlightAware ADS-B (KBHM)
Sat 06:08:44 PM 42.0668 -87.5865 169° South 201 231 4,100  Level FlightAware ADS-B (KBHM)
Sat 06:09:03 PM 42.0515 -87.5829 170° South 197 227 4,100  Level FlightAware ADS-B (KBHM)
Sat 06:09:14 PM 42.0457 -87.5817 184° South 192 221 4,100  Level FlightAware ADS-B (KBHM)
Sat 06:09:23 PM 42.0320 -87.5856 211° Southwest 183 211 4,100  Level FlightAware ADS-B (KBHM)
Sat 06:09:34 PM 42.0271 -87.5921 232° Southwest 175 201 4,100  Level FlightAware ADS-B (KBHM)
Sat 06:09:44 PM 42.0223 -87.6033 242° Southwest 172 198 4,100  Level FlightAware ADS-B (KBHM)
Sat 06:10:04 PM 42.0195 -87.6104 242° Southwest 172 198 4,100  Level FlightAware ADS-B (KBHM)
Sat 06:10:24 PM 42.0079 -87.6413 250° West 178 205 4,100  Level FlightAware ADS-B (KBHM)
Sat 06:10:44 PM 42.0043 -87.6620 259° West 170 196 4,100 -293 Level FlightAware ADS-B
Sat 06:11:05 PM 42.0027 -87.6827 267° West 166 191 3,900 -750 Descending FlightAware ADS-B
Sat 06:11:24 PM 42.0025 -87.7035 271° West 166 191 3,600 -923 Descending FlightAware ADS-B (KBHM)
Sat 06:11:44 PM 42.0027 -87.7243 271° West 161 185 3,300 -900 Descending FlightAware ADS-B (KBHM)
Sat 06:12:04 PM 42.0028 -87.7439 270° West 161 185 3,000 -750 Descending FlightAware ADS-B
Sat 06:12:24 PM 42.0027 -87.7637 270° West 157 181 2,800 -750 Descending FlightAware ADS-B (KBHM)
Sat 06:12:44 PM 42.0028 -87.7833 270° West 158 182 2,500 -900 Descending FlightAware ADS-B (KBHM)
Sat 06:13:04 PM 42.0028 -87.8017 270° West 147 169 2,200 -750 Descending FlightAware ADS-B (KBHM)
Sat 06:13:24 PM 42.0028 -87.8184 270° West 131 151 2,000 -750 Descending FlightAware ADS-B (KBHM)
Sat 06:13:44 PM 42.0028 -87.8341 270° West 128 147 1,700 -720 Descending FlightAware ADS-B (KBHM)
Sat 06:14:14 PM 42.0028 -87.8589 270° West 129 148 1,400 -600 Descending FlightAware ADS-B (KBHM)
Sat 06:14:34 PM 42.0028 -87.8751 270° West 127 146 1,200 -750 Descending FlightAware ADS-B (KBHM)
Sat 06:14:54 PM 42.0028 -87.8897 270° West 126 145 900 -269 Descending FlightAware ADS-B (KBHM)
Sat 06:15:41 PM 42.0031 -87.9253 270° West 133 153 900  Level Chicago Center

Login

Don't have an account? Register now (free) for customized features, flight alerts, and more!